Time;durP1;ratioP1;P1;durP2;ratioP2;P2;SDS_P1;SDS_P2;PMS_P1;PMS_P2;Temp;Humidity;BMP_temperature;BMP_pressure;BME280_temperature;BME280_humidity;BME280_pressure;Samples;Min_cycle;Max_cycle;Signal;HPM_P1;HPM_P2
2024/01/22 00:01:40;;;;;;;4.83;3.60;;;6.70;99.90;;;;;;975718;145;27382;-80
2024/01/22 00:04:07;;;;;;;3.97;3.60;;;6.70;99.90;;;;;;973076;145;27855;-80
2024/01/22 00:06:39;;;;;;;6.67;3.53;;;6.70;99.90;;;;;;975862;145;27315;-79
2024/01/22 00:09:05;;;;;;;5.73;3.73;;;6.70;99.90;;;;;;975095;145;27384;-82
2024/01/22 00:11:32;;;;;;;6.57;3.70;;;6.80;99.90;;;;;;966685;145;27890;-80
2024/01/22 00:13:59;;;;;;;4.50;3.33;;;6.80;99.90;;;;;;951994;149;27262;-80
2024/01/22 00:16:25;;;;;;;5.87;3.87;;;6.80;99.90;;;;;;950795;149;27286;-80
2024/01/22 00:18:52;;;;;;;7.70;3.50;;;6.90;99.90;;;;;;952497;146;27214;-81
2024/01/22 00:21:19;;;;;;;4.47;3.40;;;6.90;99.90;;;;;;952328;146;27307;-79
2024/01/22 00:23:45;;;;;;;4.10;3.03;;;6.90;99.90;;;;;;947798;148;28605;-80
2024/01/22 00:26:13;;;;;;;5.70;3.57;;;7.00;99.90;;;;;;951003;149;27389;-79
2024/01/22 00:28:41;;;;;;;4.43;3.13;;;7.00;99.90;;;;;;951562;146;27287;-81
2024/01/22 00:31:07;;;;;;;4.77;3.20;;;7.00;99.90;;;;;;951600;149;27345;-80
2024/01/22 00:33:34;;;;;;;3.50;2.80;;;7.10;99.90;;;;;;952863;149;27325;-80
2024/01/22 00:36:00;;;;;;;4.03;3.10;;;7.10;99.90;;;;;;950784;149;27241;-80
2024/01/22 00:38:27;;;;;;;6.13;3.17;;;7.10;99.90;;;;;;948807;149;27321;-80
2024/01/22 00:40:54;;;;;;;3.43;2.70;;;7.10;99.90;;;;;;951172;149;27346;-80
2024/01/22 00:43:20;;;;;;;3.80;2.63;;;7.20;99.90;;;;;;949960;149;27309;-80
2024/01/22 00:45:47;;;;;;;3.33;2.83;;;7.20;99.90;;;;;;951023;146;27365;-79
2024/01/22 00:48:13;;;;;;;3.30;3.00;;;7.20;99.90;;;;;;951660;146;27282;-81
2024/01/22 00:50:40;;;;;;;3.70;2.93;;;7.30;99.90;;;;;;951552;146;27334;-84
2024/01/22 00:53:07;;;;;;;4.03;2.90;;;7.30;99.90;;;;;;951481;146;27454;-80
2024/01/22 00:55:33;;;;;;;4.20;2.83;;;7.30;99.90;;;;;;951291;149;27285;-81
2024/01/22 00:58:00;;;;;;;5.20;3.20;;;7.30;99.90;;;;;;951513;149;27720;-80
2024/01/22 01:00:26;;;;;;;3.50;2.90;;;7.30;99.90;;;;;;949867;149;27270;-83
2024/01/22 01:02:53;;;;;;;3.20;2.93;;;7.30;99.90;;;;;;952395;146;27325;-88
2024/01/22 01:05:19;;;;;;;4.30;3.20;;;7.30;99.80;;;;;;948254;146;27269;-87
2024/01/22 01:07:46;;;;;;;3.43;2.80;;;7.20;99.60;;;;;;951804;146;27281;-85
2024/01/22 01:10:13;;;;;;;2.77;2.43;;;7.20;99.40;;;;;;950658;149;27297;-83
2024/01/22 01:12:39;;;;;;;3.70;2.80;;;7.20;99.20;;;;;;954984;145;27472;-83
2024/01/22 01:15:06;;;;;;;3.80;3.03;;;7.10;99.20;;;;;;957182;148;27820;-84
2024/01/22 01:17:32;;;;;;;4.33;3.20;;;7.10;99.10;;;;;;958396;145;27413;-84
2024/01/22 01:19:59;;;;;;;3.23;2.93;;;7.00;99.20;;;;;;959969;145;27326;-83
2024/01/22 01:22:26;;;;;;;4.17;2.80;;;7.00;99.30;;;;;;960672;145;27316;-83
2024/01/22 01:24:52;;;;;;;3.33;2.50;;;6.90;99.40;;;;;;958060;147;27304;-82
2024/01/22 01:27:19;;;;;;;3.00;2.70;;;6.90;99.60;;;;;;958380;148;27245;-84
2024/01/22 01:29:45;;;;;;;3.43;2.60;;;6.90;99.50;;;;;;957931;148;27300;-84
2024/01/22 01:32:12;;;;;;;3.50;2.80;;;6.80;99.90;;;;;;958160;147;27268;-82
2024/01/22 01:34:39;;;;;;;3.30;2.50;;;6.80;99.90;;;;;;959778;148;27384;-82
2024/01/22 01:37:05;;;;;;;4.90;2.53;;;6.80;99.90;;;;;;957866;145;27333;-84
2024/01/22 01:39:32;;;;;;;4.73;2.43;;;6.80;99.90;;;;;;958609;148;27479;-84
2024/01/22 01:41:58;;;;;;;3.67;2.47;;;6.80;99.90;;;;;;958316;147;27224;-83
2024/01/22 01:44:40;;;;;;;2.50;2.30;;;6.90;99.90;;;;;;960184;148;27248;-83
2024/01/22 01:47:07;;;;;;;3.77;2.53;;;6.90;99.90;;;;;;960148;148;27307;-84
2024/01/22 01:49:33;;;;;;;3.03;2.37;;;6.90;99.90;;;;;;957924;148;28020;-84
2024/01/22 01:52:00;;;;;;;2.70;2.50;;;6.90;99.90;;;;;;957309;148;27787;-84
2024/01/22 01:54:27;;;;;;;3.77;2.40;;;6.90;99.90;;;;;;957535;145;27392;-84
2024/01/22 01:56:53;;;;;;;2.43;2.20;;;7.00;99.90;;;;;;958919;148;27310;-84
2024/01/22 01:59:20;;;;;;;3.50;2.27;;;7.00;99.90;;;;;;957996;148;27400;-83
2024/01/22 02:01:46;;;;;;;3.60;2.33;;;7.10;99.90;;;;;;959039;145;27368;-84
2024/01/22 02:04:13;;;;;;;3.40;2.67;;;7.10;99.90;;;;;;959514;147;27365;-84
2024/01/22 02:06:39;;;;;;;2.47;2.00;;;7.10;99.90;;;;;;958306;145;27370;-82
2024/01/22 02:09:06;;;;;;;3.63;2.50;;;7.20;99.90;;;;;;959072;148;27347;-84
2024/01/22 02:11:33;;;;;;;3.50;2.30;;;7.20;99.90;;;;;;959569;148;27219;-85
2024/01/22 02:13:59;;;;;;;3.40;2.20;;;7.20;99.90;;;;;;952771;146;27290;-84
2024/01/22 02:16:26;;;;;;;3.10;2.20;;;7.30;99.90;;;;;;949433;146;27284;-83
2024/01/22 02:18:52;;;;;;;3.07;2.47;;;7.30;99.90;;;;;;950770;146;27407;-84
2024/01/22 02:21:19;;;;;;;3.20;2.40;;;7.30;99.90;;;;;;949544;146;28572;-86
2024/01/22 02:23:46;;;;;;;2.80;2.03;;;7.40;99.90;;;;;;950621;146;27362;-87
2024/01/22 02:26:12;;;;;;;3.57;2.67;;;7.40;99.90;;;;;;950723;149;27257;-86
2024/01/22 02:28:39;;;;;;;2.73;2.40;;;7.40;99.90;;;;;;951011;146;27397;-88
2024/01/22 02:31:07;;;;;;;4.77;2.33;;;7.50;99.90;;;;;;953205;149;27336;-87
2024/01/22 02:33:32;;;;;;;4.93;2.30;;;7.50;99.90;;;;;;952105;149;27256;-87
2024/01/22 02:35:58;;;;;;;2.30;2.10;;;7.60;99.90;;;;;;950425;149;27353;-86
2024/01/22 02:38:25;;;;;;;2.73;2.10;;;7.60;99.90;;;;;;952885;149;27308;-83
2024/01/22 02:40:52;;;;;;;3.93;2.40;;;7.60;99.90;;;;;;950141;145;27414;-87
2024/01/22 02:43:18;;;;;;;3.00;2.43;;;7.70;99.90;;;;;;950625;146;27290;-86
2024/01/22 02:45:45;;;;;;;2.93;2.40;;;7.70;99.90;;;;;;951843;146;27408;-87
2024/01/22 02:48:11;;;;;;;2.07;1.90;;;7.80;99.90;;;;;;952556;146;27321;-84
2024/01/22 02:50:38;;;;;;;3.33;2.63;;;7.80;99.90;;;;;;949662;146;27312;-86
2024/01/22 02:53:05;;;;;;;2.93;2.23;;;7.80;99.90;;;;;;952685;149;27257;-87
2024/01/22 02:55:31;;;;;;;2.33;2.13;;;7.90;99.90;;;;;;950176;146;27307;-87
2024/01/22 02:57:58;;;;;;;2.90;2.40;;;7.90;99.90;;;;;;949874;146;27338;-86
2024/01/22 03:00:24;;;;;;;2.87;2.30;;;7.90;99.90;;;;;;950151;146;27312;-82
2024/01/22 03:02:51;;;;;;;2.17;1.97;;;8.00;99.90;;;;;;951511;149;28323;-84
2024/01/22 03:05:17;;;;;;;2.50;2.03;;;8.00;99.90;;;;;;952913;146;27310;-87
2024/01/22 03:07:44;;;;;;;2.73;2.23;;;8.00;99.90;;;;;;951692;146;28284;-84
2024/01/22 03:10:11;;;;;;;2.37;2.17;;;8.00;99.90;;;;;;951094;149;27425;-86
2024/01/22 03:12:37;;;;;;;2.53;2.00;;;8.10;99.90;;;;;;952216;146;27337;-87
2024/01/22 03:15:04;;;;;;;2.10;1.80;;;8.10;99.90;;;;;;958889;147;27301;-87
2024/01/22 03:17:30;;;;;;;2.13;1.87;;;8.10;99.90;;;;;;958806;148;27267;-87
2024/01/22 03:19:57;;;;;;;3.67;1.80;;;8.10;99.90;;;;;;959541;147;27280;-83
2024/01/22 03:22:24;;;;;;;2.30;1.90;;;8.10;99.90;;;;;;960876;147;27314;-78
2024/01/22 03:24:50;;;;;;;3.50;2.00;;;8.20;99.90;;;;;;956834;145;27347;-78
2024/01/22 03:27:17;;;;;;;2.20;2.00;;;8.20;99.90;;;;;;958979;145;27326;-79
2024/01/22 03:29:43;;;;;;;2.93;1.87;;;8.20;99.90;;;;;;958902;145;27353;-82
2024/01/22 03:32:10;;;;;;;4.03;2.37;;;8.20;99.90;;;;;;959143;148;27328;-81
2024/01/22 03:34:36;;;;;;;3.93;2.20;;;8.30;99.90;;;;;;958934;148;27396;-82
2024/01/22 03:37:03;;;;;;;2.90;1.57;;;8.30;99.90;;;;;;959837;148;27376;-82
2024/01/22 03:39:30;;;;;;;2.00;1.80;;;8.30;99.90;;;;;;958289;148;27232;-82
2024/01/22 03:41:56;;;;;;;2.03;1.87;;;8.30;99.70;;;;;;959630;148;27307;-82
2024/01/22 03:44:23;;;;;;;2.07;1.87;;;8.40;99.70;;;;;;961357;148;27339;-82
2024/01/22 03:46:49;;;;;;;3.30;2.20;;;8.40;99.60;;;;;;957911;148;27240;-82
2024/01/22 03:49:16;;;;;;;2.73;1.77;;;8.40;99.50;;;;;;957914;148;27797;-82
2024/01/22 03:51:43;;;;;;;2.30;1.70;;;8.40;99.60;;;;;;960150;145;27329;-82
2024/01/22 03:54:09;;;;;;;1.77;1.67;;;8.40;99.60;;;;;;960140;145;27384;-81
2024/01/22 03:56:37;;;;;;;2.47;1.70;;;8.50;99.60;;;;;;959303;145;27220;-82
2024/01/22 03:59:02;;;;;;;2.30;1.70;;;8.50;99.60;;;;;;959657;148;27228;-82
2024/01/22 04:01:29;;;;;;;4.17;1.80;;;8.50;99.60;;;;;;957766;148;27308;-82
2024/01/22 04:03:55;;;;;;;1.67;1.57;;;8.60;99.60;;;;;;958579;145;27307;-81
2024/01/22 04:06:22;;;;;;;1.50;1.40;;;8.60;99.50;;;;;;956757;145;27246;-82
2024/01/22 04:08:49;;;;;;;2.17;1.53;;;8.60;99.40;;;;;;957111;145;27409;-81
2024/01/22 04:11:15;;;;;;;1.83;1.50;;;8.60;99.30;;;;;;958720;147;27269;-82
2024/01/22 04:13:43;;;;;;;1.73;1.60;;;8.60;99.30;;;;;;957661;145;27480;-82
2024/01/22 04:16:08;;;;;;;2.33;1.33;;;8.60;99.40;;;;;;956750;145;27223;-81
2024/01/22 04:18:35;;;;;;;1.33;1.30;;;8.60;99.40;;;;;;956804;145;27860;-81
2024/01/22 04:21:02;;;;;;;3.30;1.60;;;8.70;99.60;;;;;;959881;145;27263;-82
2024/01/22 04:23:30;;;;;;;1.70;1.20;;;8.70;99.60;;;;;;958713;148;27324;-83
2024/01/22 04:25:55;;;;;;;1.67;1.57;;;8.70;99.80;;;;;;984571;141;27405;-82
2024/01/22 04:28:21;;;;;;;1.77;1.40;;;8.70;99.90;;;;;;986521;144;27272;-82
2024/01/22 04:30:48;;;;;;;1.50;1.23;;;8.80;99.90;;;;;;984661;144;27362;-84
2024/01/22 04:33:14;;;;;;;3.53;1.23;;;8.80;99.90;;;;;;983601;141;27253;-81
2024/01/22 04:35:41;;;;;;;1.60;1.27;;;8.90;99.90;;;;;;985992;142;27321;-84
2024/01/22 04:38:08;;;;;;;1.63;1.20;;;8.90;99.90;;;;;;953730;150;27404;-84
2024/01/22 04:40:34;;;;;;;1.43;1.33;;;9.00;99.90;;;;;;955807;147;27293;-79
2024/01/22 04:43:01;;;;;;;1.10;1.10;;;9.00;99.90;;;;;;963167;144;27248;-85
2024/01/22 04:45:27;;;;;;;0.97;0.93;;;9.10;99.90;;;;;;958321;148;27315;-84
2024/01/22 04:47:54;;;;;;;1.60;1.20;;;9.20;99.90;;;;;;961532;147;28502;-84
2024/01/22 04:50:21;;;;;;;1.57;1.40;;;9.20;99.90;;;;;;959600;145;27348;-84
2024/01/22 04:52:47;;;;;;;1.00;1.00;;;9.30;99.90;;;;;;959908;145;27436;-84
2024/01/22 04:55:14;;;;;;;1.43;1.20;;;9.30;99.90;;;;;;960668;148;27241;-81
2024/01/22 04:57:41;;;;;;;1.27;1.07;;;9.40;99.90;;;;;;960938;148;27316;-85
2024/01/22 05:00:07;;;;;;;1.50;1.40;;;9.50;99.90;;;;;;957662;148;27307;-84
2024/01/22 05:02:34;;;;;;;2.23;1.50;;;9.60;99.80;;;;;;958872;147;27389;-83
2024/01/22 05:05:00;;;;;;;1.30;1.20;;;9.60;99.50;;;;;;956511;148;27316;-81
2024/01/22 05:07:27;;;;;;;3.07;1.20;;;9.70;99.30;;;;;;959172;148;27412;-84
2024/01/22 05:09:57;;;;;;;2.03;1.37;;;9.70;99.10;;;;;;958232;148;27283;-85
2024/01/22 05:12:23;;;;;;;1.20;1.10;;;9.80;98.80;;;;;;958568;145;27252;-84
2024/01/22 05:14:50;;;;;;;2.50;1.20;;;9.80;98.80;;;;;;960194;145;27823;-84
2024/01/22 05:17:16;;;;;;;3.17;1.60;;;9.90;98.60;;;;;;958895;145;27324;-84
2024/01/22 05:19:43;;;;;;;2.10;1.10;;;9.90;98.40;;;;;;958306;148;27343;-85
2024/01/22 05:22:09;;;;;;;1.23;1.03;;;10.00;98.40;;;;;;961007;145;27630;-85
2024/01/22 05:24:36;;;;;;;1.40;1.20;;;10.00;98.30;;;;;;958356;147;27365;-84
2024/01/22 05:27:03;;;;;;;1.40;1.30;;;10.10;97.80;;;;;;957626;148;27722;-85
2024/01/22 05:29:29;;;;;;;1.47;1.37;;;10.20;97.70;;;;;;958627;148;27392;-85
2024/01/22 05:31:56;;;;;;;0.90;0.90;;;10.20;97.50;;;;;;957648;148;27293;-85
2024/01/22 05:34:22;;;;;;;1.10;1.10;;;10.30;97.40;;;;;;957854;147;27370;-85
2024/01/22 05:36:49;;;;;;;1.10;1.00;;;10.30;96.80;;;;;;959857;148;27244;-83
2024/01/22 05:39:15;;;;;;;1.90;1.00;;;10.40;96.50;;;;;;959247;147;27439;-84
2024/01/22 05:41:42;;;;;;;2.10;1.40;;;10.40;96.20;;;;;;960727;145;27284;-88
2024/01/22 05:44:09;;;;;;;3.00;1.50;;;10.50;95.60;;;;;;956469;148;27293;-87
2024/01/22 05:46:35;;;;;;;1.40;0.80;;;10.50;95.60;;;;;;959206;145;27337;-86
2024/01/22 05:49:02;;;;;;;2.13;1.13;;;10.60;95.40;;;;;;958687;148;27421;-88
2024/01/22 05:51:28;;;;;;;1.20;1.10;;;10.60;95.10;;;;;;959166;148;27329;-87
2024/01/22 05:53:55;;;;;;;1.82;1.20;;;10.70;94.90;;;;;;958671;145;27304;-88
2024/01/22 05:56:22;;;;;;;1.90;0.90;;;10.70;94.40;;;;;;959708;148;27234;-87
2024/01/22 05:58:48;;;;;;;1.47;1.17;;;10.80;94.20;;;;;;956869;148;27378;-82
2024/01/22 06:01:27;;;;;;;1.95;1.27;;;10.80;93.80;;;;;;959946;148;27319;-87
2024/01/22 06:03:53;;;;;;;1.70;1.20;;;10.90;93.60;;;;;;960934;148;27196;-88
2024/01/22 06:06:20;;;;;;;1.30;1.17;;;10.90;93.60;;;;;;958317;148;27248;-87
2024/01/22 06:08:47;;;;;;;2.07;1.20;;;10.90;93.30;;;;;;961285;145;27308;-84
2024/01/22 06:11:13;;;;;;;1.63;1.20;;;10.90;93.20;;;;;;960400;148;27364;-88
2024/01/22 06:13:41;;;;;;;2.13;1.10;;;11.00;93.00;;;;;;959509;148;28829;-87
2024/01/22 06:16:07;;;;;;;1.77;0.93;;;11.00;93.20;;;;;;953666;148;27423;-87
2024/01/22 06:18:33;;;;;;;1.33;1.23;;;11.00;93.00;;;;;;953676;149;27280;-86
2024/01/22 06:20:59;;;;;;;1.60;1.33;;;11.10;92.80;;;;;;949907;145;27419;-87
2024/01/22 06:23:26;;;;;;;1.40;1.30;;;11.10;92.50;;;;;;951808;149;27382;-87
2024/01/22 06:25:53;;;;;;;2.03;1.30;;;11.10;92.60;;;;;;952447;146;27383;-88
2024/01/22 06:28:19;;;;;;;1.43;1.27;;;11.10;92.60;;;;;;952099;145;27326;-87
2024/01/22 06:30:46;;;;;;;2.27;1.40;;;11.20;92.60;;;;;;951875;149;27363;-83
2024/01/22 06:33:12;;;;;;;1.25;1.00;;;11.20;92.20;;;;;;950241;146;27330;-88
2024/01/22 06:35:39;;;;;;;1.43;1.27;;;11.20;91.90;;;;;;951383;149;27259;-88
2024/01/22 06:38:06;;;;;;;1.63;1.10;;;11.20;91.70;;;;;;951087;145;27263;-87
2024/01/22 06:40:32;;;;;;;1.20;1.10;;;11.30;91.70;;;;;;949300;149;27342;-84
2024/01/22 06:42:59;;;;;;;1.60;1.30;;;11.30;91.80;;;;;;957515;148;27343;-87
2024/01/22 06:45:25;;;;;;;1.30;1.30;;;11.30;90.80;;;;;;950117;147;27274;-88
2024/01/22 06:47:55;;;;;;;2.23;1.30;;;11.30;91.60;;;;;;950766;149;27271;-83
2024/01/22 06:50:22;;;;;;;1.80;1.15;;;11.30;91.60;;;;;;949443;149;27310;-83
2024/01/22 06:52:48;;;;;;;3.83;2.83;;;11.30;91.40;;;;;;948472;149;27322;-80
2024/01/22 06:55:14;;;;;;;8.47;6.17;;;11.40;91.80;;;;;;943918;148;27391;-80
2024/01/22 06:57:41;;;;;;;5.70;3.53;;;11.40;91.50;;;;;;961363;145;27247;-81
2024/01/22 07:00:08;;;;;;;1.77;1.65;;;11.40;91.30;;;;;;960907;148;27399;-82
2024/01/22 07:02:35;;;;;;;1.47;1.17;;;11.40;91.40;;;;;;960806;147;27294;-82
2024/01/22 07:05:01;;;;;;;1.77;1.20;;;11.40;91.20;;;;;;954610;149;27424;-81
2024/01/22 07:07:27;;;;;;;1.20;1.10;;;11.50;90.90;;;;;;954642;145;27238;-82
2024/01/22 07:09:54;;;;;;;1.40;1.30;;;11.50;91.10;;;;;;955276;149;27373;-81
2024/01/22 07:12:21;;;;;;;1.13;1.13;;;11.50;91.00;;;;;;955946;149;27347;-80
2024/01/22 07:14:48;;;;;;;1.30;1.20;;;11.50;90.90;;;;;;954357;145;28402;-82
2024/01/22 07:17:16;;;;;;;1.17;1.10;;;11.60;91.00;;;;;;954667;146;27295;-81
2024/01/22 07:19:43;;;;;;;1.82;1.50;;;11.50;90.80;;;;;;952462;147;27326;-82
2024/01/22 07:22:10;;;;;;;2.90;1.20;;;11.60;90.70;;;;;;950904;148;27305;-81
2024/01/22 07:24:36;;;;;;;1.30;1.20;;;11.60;90.90;;;;;;951918;147;27328;-81
2024/01/22 07:27:03;;;;;;;2.30;1.20;;;11.60;91.00;;;;;;950253;148;27295;-81
2024/01/22 07:29:30;;;;;;;1.40;1.00;;;11.60;91.00;;;;;;953626;147;27366;-81
2024/01/22 07:31:56;;;;;;;1.60;1.10;;;11.60;90.90;;;;;;952362;147;27341;-82
2024/01/22 07:34:22;;;;;;;2.25;1.30;;;11.60;91.00;;;;;;951972;147;27426;-79
2024/01/22 07:36:50;;;;;;;1.40;1.30;;;11.50;91.00;;;;;;951692;149;27328;-79
2024/01/22 07:39:16;;;;;;;1.07;1.07;;;11.50;91.20;;;;;;952980;148;27362;-79
2024/01/22 07:41:42;;;;;;;1.50;1.40;;;11.50;91.30;;;;;;952637;148;27341;-81
2024/01/22 07:44:09;;;;;;;2.53;2.33;;;11.50;91.50;;;;;;951149;145;27349;-78
2024/01/22 07:46:36;;;;;;;1.77;1.50;;;11.40;91.70;;;;;;949076;148;27350;-79
2024/01/22 07:49:02;;;;;;;1.63;1.40;;;11.40;92.00;;;;;;951366;148;27253;-79
2024/01/22 07:51:29;;;;;;;1.27;1.23;;;11.40;92.40;;;;;;951980;145;27285;-81
2024/01/22 07:53:55;;;;;;;2.57;2.10;;;11.40;92.50;;;;;;952380;147;27346;-79
2024/01/22 07:56:22;;;;;;;1.97;1.80;;;11.40;92.70;;;;;;952434;147;27300;-79
2024/01/22 07:58:48;;;;;;;1.60;1.50;;;11.40;92.80;;;;;;952090;147;27353;-79
2024/01/22 08:01:15;;;;;;;1.27;1.10;;;11.40;92.90;;;;;;951690;148;27265;-79
2024/01/22 08:03:42;;;;;;;1.22;1.22;;;11.40;93.10;;;;;;952277;147;27289;-82
2024/01/22 08:06:08;;;;;;;1.20;1.20;;;11.30;93.20;;;;;;952175;148;27433;-79
2024/01/22 08:08:35;;;;;;;2.83;1.47;;;11.30;93.50;;;;;;952088;148;27321;-79
2024/01/22 08:11:01;;;;;;;1.87;1.50;;;11.30;93.80;;;;;;952349;145;27356;-78
2024/01/22 08:13:28;;;;;;;1.60;1.30;;;11.20;94.30;;;;;;951643;148;27290;-83
2024/01/22 08:15:54;;;;;;;2.07;1.50;;;11.20;94.60;;;;;;951017;146;27329;-85
2024/01/22 08:18:21;;;;;;;3.57;1.70;;;11.10;95.00;;;;;;973839;146;27276;-85
2024/01/22 08:20:48;;;;;;;2.20;2.00;;;11.00;95.30;;;;;;971203;146;27296;-85
2024/01/22 08:23:14;;;;;;;1.90;1.50;;;10.90;95.60;;;;;;972847;146;27363;-84
2024/01/22 08:25:41;;;;;;;3.27;1.60;;;10.90;96.10;;;;;;972231;146;27415;-84
2024/01/22 08:28:07;;;;;;;1.40;1.30;;;10.80;96.40;;;;;;972398;146;27321;-85
2024/01/22 08:30:34;;;;;;;1.70;1.20;;;10.70;96.90;;;;;;970907;146;27369;-86
2024/01/22 08:33:01;;;;;;;1.37;1.27;;;10.70;97.40;;;;;;971685;146;27261;-86
2024/01/22 08:35:28;;;;;;;2.83;1.50;;;10.60;97.80;;;;;;974255;146;27343;-82
2024/01/22 08:37:54;;;;;;;1.23;1.07;;;10.60;98.10;;;;;;971885;146;28513;-86
2024/01/22 08:40:23;;;;;;;1.53;1.43;;;10.50;98.70;;;;;;973823;146;27338;-86
2024/01/22 08:42:50;;;;;;;2.17;1.57;;;10.50;98.80;;;;;;971938;146;27309;-83
2024/01/22 08:45:16;;;;;;;3.10;1.67;;;10.40;99.10;;;;;;972414;146;27467;-85
2024/01/22 08:47:45;;;;;;;1.43;1.30;;;10.40;99.50;;;;;;971105;146;27230;-85
2024/01/22 08:50:15;;;;;;;2.30;1.27;;;10.40;99.70;;;;;;973626;145;27424;-85
2024/01/22 08:52:38;;;;;;;1.10;1.00;;;10.40;99.90;;;;;;972034;145;27271;-81
2024/01/22 08:55:05;;;;;;;1.77;1.13;;;10.40;99.90;;;;;;972888;146;27358;-85
2024/01/22 08:57:31;;;;;;;1.20;1.20;;;10.40;99.90;;;;;;973647;146;27280;-85
2024/01/22 08:59:58;;;;;;;2.30;1.30;;;10.40;99.90;;;;;;973284;146;27376;-85
2024/01/22 09:02:25;;;;;;;2.93;1.40;;;10.40;99.90;;;;;;973505;145;27256;-82
2024/01/22 09:04:51;;;;;;;1.30;1.20;;;10.40;99.90;;;;;;972077;146;27326;-83
2024/01/22 09:07:19;;;;;;;2.87;1.30;;;10.40;99.90;;;;;;972074;146;27303;-84
2024/01/22 09:09:44;;;;;;;2.57;1.17;;;10.50;99.90;;;;;;971743;146;27311;-86
2024/01/22 09:12:11;;;;;;;1.77;1.33;;;10.40;99.90;;;;;;974246;146;27330;-84
2024/01/22 09:14:38;;;;;;;2.33;1.33;;;10.50;99.90;;;;;;972382;146;27354;-81
2024/01/22 09:17:04;;;;;;;1.17;1.07;;;10.50;99.90;;;;;;968062;146;27373;-85
2024/01/22 09:19:31;;;;;;;1.37;1.27;;;10.50;99.90;;;;;;951954;148;27303;-84
2024/01/22 09:21:57;;;;;;;2.47;1.23;;;10.50;99.90;;;;;;950281;148;27255;-85
2024/01/22 09:24:24;;;;;;;1.83;1.23;;;10.60;99.90;;;;;;951325;146;27755;-83
2024/01/22 09:26:51;;;;;;;1.33;1.23;;;10.60;99.90;;;;;;949909;148;27322;-85
2024/01/22 09:29:17;;;;;;;1.63;1.43;;;10.60;99.90;;;;;;951794;149;27340;-86
2024/01/22 09:31:44;;;;;;;1.53;1.30;;;10.60;99.90;;;;;;950868;149;27298;-85
2024/01/22 09:34:10;;;;;;;1.43;1.33;;;10.70;99.90;;;;;;953324;146;27284;-85
2024/01/22 09:36:37;;;;;;;1.40;1.30;;;10.70;99.90;;;;;;950719;148;27261;-82
2024/01/22 09:39:05;;;;;;;1.30;1.20;;;10.80;99.90;;;;;;949739;148;27301;-85
2024/01/22 09:41:31;;;;;;;1.30;1.20;;;10.90;99.90;;;;;;950221;149;27306;-85
2024/01/22 09:43:57;;;;;;;1.27;1.13;;;10.90;99.90;;;;;;953780;148;27282;-84
2024/01/22 09:46:23;;;;;;;1.67;1.57;;;11.00;99.90;;;;;;949250;148;27320;-84
2024/01/22 09:48:50;;;;;;;1.27;1.10;;;11.00;99.90;;;;;;950944;146;27396;-84
2024/01/22 09:51:16;;;;;;;2.47;1.32;;;11.10;99.90;;;;;;951050;148;27407;-85
2024/01/22 09:53:43;;;;;;;1.37;1.27;;;11.10;99.90;;;;;;951456;148;27335;-84
2024/01/22 09:56:09;;;;;;;1.77;1.42;;;11.20;99.90;;;;;;950544;146;27320;-86
2024/01/22 09:58:36;;;;;;;1.82;1.40;;;11.30;99.90;;;;;;952004;148;27401;-86
2024/01/22 10:01:03;;;;;;;2.00;1.10;;;11.30;99.90;;;;;;951602;149;27311;-85
2024/01/22 10:03:32;;;;;;;1.00;1.00;;;11.40;99.90;;;;;;950605;146;27287;-86
2024/01/22 10:05:56;;;;;;;1.53;1.43;;;11.40;99.90;;;;;;949214;146;27294;-84
2024/01/22 10:08:22;;;;;;;2.07;1.40;;;11.50;99.90;;;;;;950807;146;27356;-81
2024/01/22 10:10:49;;;;;;;1.40;1.27;;;11.60;99.90;;;;;;950692;148;27409;-86
2024/01/22 10:13:17;;;;;;;1.35;1.12;;;11.60;99.90;;;;;;951817;148;27274;-86
2024/01/22 10:15:43;;;;;;;1.52;1.27;;;11.70;99.90;;;;;;952685;149;27339;-86
2024/01/22 10:18:15;;;;;;;2.12;1.27;;;11.80;99.90;;;;;;955292;145;27459;-83
2024/01/22 10:20:41;;;;;;;0.98;0.98;;;11.80;99.90;;;;;;949517;149;27426;-86
2024/01/22 10:23:08;;;;;;;2.40;1.10;;;11.90;99.90;;;;;;951694;148;27230;-84
2024/01/22 10:25:34;;;;;;;1.35;1.22;;;12.00;99.90;;;;;;950668;148;27392;-86
2024/01/22 10:28:10;;;;;;;1.42;1.32;;;12.10;99.90;;;;;;952452;146;27368;-83
2024/01/22 10:30:37;;;;;;;1.37;1.27;;;12.10;99.90;;;;;;950637;149;27310;-86
2024/01/22 10:33:12;;;;;;;1.60;1.37;;;12.20;99.90;;;;;;949913;149;27276;-80
2024/01/22 10:35:38;;;;;;;1.40;1.30;;;12.20;99.90;;;;;;951563;148;27729;-80
2024/01/22 10:38:10;;;;;;;3.10;1.40;;;12.30;99.90;;;;;;951139;146;27329;-83
2024/01/22 10:40:37;;;;;;;1.85;1.10;;;12.30;99.90;;;;;;951194;148;28259;-79
2024/01/22 10:43:26;;;;;;;1.30;1.20;;;12.30;99.90;;;;;;951130;146;27255;-79
2024/01/22 10:45:52;;;;;;;1.90;0.90;;;12.30;99.90;;;;;;950478;148;27892;-80
2024/01/22 10:48:18;;;;;;;1.65;1.30;;;12.30;99.90;;;;;;950729;148;27376;-82
2024/01/22 10:50:45;;;;;;;1.70;1.17;;;12.30;99.90;;;;;;951183;148;27314;-79
2024/01/22 10:53:11;;;;;;;1.47;1.37;;;12.30;99.90;;;;;;952525;146;27290;-79
2024/01/22 10:55:41;;;;;;;1.10;1.00;;;12.30;99.90;;;;;;950347;148;27282;-80
2024/01/22 10:58:08;;;;;;;1.70;0.90;;;12.30;99.90;;;;;;952554;149;27269;-81
2024/01/22 11:00:32;;;;;;;1.75;1.30;;;12.30;99.90;;;;;;949329;149;27313;-78
2024/01/22 11:02:58;;;;;;;1.20;1.10;;;12.30;99.90;;;;;;951304;146;27286;-78
2024/01/22 11:05:24;;;;;;;1.67;1.40;;;12.30;99.90;;;;;;948008;149;27362;-78
2024/01/22 11:07:51;;;;;;;1.60;1.17;;;12.30;99.90;;;;;;951989;149;27283;-79
2024/01/22 11:10:17;;;;;;;2.72;1.47;;;12.30;99.90;;;;;;951100;147;27369;-82
2024/01/22 11:12:47;;;;;;;1.47;1.05;;;12.30;99.90;;;;;;950974;146;27316;-79
2024/01/22 11:15:13;;;;;;;1.92;1.50;;;12.30;99.90;;;;;;949047;149;27311;-79
2024/01/22 11:17:40;;;;;;;1.50;1.37;;;12.30;99.90;;;;;;949643;146;27258;-79
2024/01/22 11:20:19;;;;;;;1.40;1.30;;;12.40;99.90;;;;;;949273;148;27366;-82
2024/01/22 11:23:00;;;;;;;1.22;1.12;;;12.40;99.90;;;;;;950546;149;27336;-79
2024/01/22 11:25:27;;;;;;;1.05;1.02;;;12.40;99.90;;;;;;953602;148;27246;-80
2024/01/22 11:27:59;;;;;;;2.02;1.25;;;12.40;99.90;;;;;;951690;148;27341;-80
2024/01/22 11:30:26;;;;;;;1.37;1.30;;;12.40;99.90;;;;;;947707;149;27903;-79
2024/01/22 11:32:52;;;;;;;1.00;1.00;;;12.40;99.90;;;;;;951542;148;27305;-80
2024/01/22 11:35:37;;;;;;;1.42;1.10;;;12.50;99.90;;;;;;949271;149;27678;-80
2024/01/22 11:38:03;;;;;;;1.75;1.17;;;12.50;99.90;;;;;;950405;149;27368;-81
2024/01/22 11:40:48;;;;;;;1.42;1.32;;;12.50;99.90;;;;;;951180;146;27381;-80
2024/01/22 11:43:16;;;;;;;1.15;1.15;;;12.50;99.90;;;;;;950088;149;27385;-80
2024/01/22 11:45:41;;;;;;;1.85;1.07;;;12.60;99.90;;;;;;950741;148;27319;-79
2024/01/22 11:48:17;;;;;;;1.45;1.35;;;12.60;99.90;;;;;;950565;148;27310;-79
2024/01/22 11:50:44;;;;;;;1.98;1.42;;;12.60;99.90;;;;;;950166;147;27326;-81
2024/01/22 11:53:10;;;;;;;1.87;1.50;;;12.70;99.90;;;;;;949465;149;27349;-79
2024/01/22 11:55:38;;;;;;;1.17;0.95;;;12.70;99.90;;;;;;952267;148;27308;-79
2024/01/22 11:58:03;;;;;;;1.45;1.12;;;12.70;99.90;;;;;;949312;148;27311;-79
2024/01/22 12:00:30;;;;;;;1.10;1.00;;;12.80;99.90;;;;;;950016;147;27259;-80
2024/01/22 12:02:59;;;;;;;2.12;1.85;;;12.80;99.90;;;;;;951278;146;27443;-83
2024/01/22 12:05:23;;;;;;;1.27;1.20;;;12.80;99.90;;;;;;949089;149;27422;-79
2024/01/22 12:07:51;;;;;;;1.35;1.10;;;12.90;99.90;;;;;;950214;148;27370;-79
2024/01/22 12:10:25;;;;;;;0.80;0.80;;;12.90;99.90;;;;;;950776;146;27404;-79
2024/01/22 12:12:52;;;;;;;1.60;1.05;;;12.90;99.90;;;;;;949387;148;27349;-79
2024/01/22 12:15:18;;;;;;;1.05;0.98;;;12.90;99.90;;;;;;952095;146;27292;-80
2024/01/22 12:17:45;;;;;;;1.15;1.05;;;12.90;99.90;;;;;;951125;148;27269;-79
2024/01/22 12:20:11;;;;;;;2.22;1.25;;;12.90;99.90;;;;;;950279;146;27357;-79
2024/01/22 12:22:38;;;;;;;1.27;1.17;;;12.90;99.90;;;;;;953567;148;27347;-81
2024/01/22 12:25:07;;;;;;;1.20;1.07;;;12.90;99.90;;;;;;951147;149;27329;-79
2024/01/22 12:27:35;;;;;;;1.10;1.10;;;12.90;99.90;;;;;;951280;146;27298;-79
2024/01/22 12:30:01;;;;;;;1.10;1.00;;;12.90;99.90;;;;;;949164;146;27253;-79
2024/01/22 12:32:27;;;;;;;0.88;0.88;;;12.90;99.90;;;;;;950528;146;27413;-83
2024/01/22 12:34:57;;;;;;;0.95;0.72;;;13.00;99.90;;;;;;952548;148;27333;-79
2024/01/22 12:37:25;;;;;;;1.12;0.93;;;13.00;99.90;;;;;;951879;148;27334;-79
2024/01/22 12:39:50;;;;;;;2.83;1.85;;;13.10;99.90;;;;;;950137;148;27257;-80
2024/01/22 12:42:18;;;;;;;0.70;0.70;;;13.20;99.90;;;;;;948951;149;27262;-81
2024/01/22 12:44:43;;;;;;;0.95;0.93;;;13.20;99.90;;;;;;950909;149;27385;-80
2024/01/22 12:47:10;;;;;;;0.85;0.70;;;13.30;99.90;;;;;;948930;149;27415;-80
2024/01/22 12:49:36;;;;;;;1.17;0.88;;;13.30;99.90;;;;;;952324;148;27269;-80